Time;durP1;ratioP1;P1;durP2;ratioP2;P2;SDS_P1;SDS_P2;PMS_P1;PMS_P2;Temp;Humidity;BMP_temperature;BMP_pressure;BME280_temperature;BME280_humidity;BME280_pressure;Samples;Min_cycle;Max_cycle;Signal;HPM_P1;HPM_P2
2022/06/14 00:01:05;;;;;;;6.88;1.20;;;11.80;99.90;;;;;;5038308;28;20037;-69
2022/06/14 00:03:37;;;;;;;10.98;1.65;;;11.80;99.90;;;;;;5021262;28;20043;-68
2022/06/14 00:06:09;;;;;;;5.47;1.10;;;11.80;99.90;;;;;;5038567;28;20036;-69
2022/06/14 00:08:36;;;;;;;5.00;1.27;;;11.70;99.90;;;;;;5022437;28;20033;-70
2022/06/14 00:11:10;;;;;;;5.53;2.00;;;11.70;99.90;;;;;;5038860;28;20041;-67
2022/06/14 00:13:35;;;;;;;5.40;1.13;;;11.70;99.90;;;;;;5039917;28;20041;-69
2022/06/14 00:16:01;;;;;;;13.45;2.78;;;11.70;99.90;;;;;;5020406;28;20028;-69
2022/06/14 00:18:27;;;;;;;6.28;0.88;;;11.70;99.90;;;;;;5020903;28;20490;-70
2022/06/14 00:20:52;;;;;;;4.32;1.10;;;11.70;99.90;;;;;;5021400;28;20057;-71
2022/06/14 00:23:19;;;;;;;8.38;1.77;;;11.60;99.90;;;;;;5016162;28;20029;-68
2022/06/14 00:25:54;;;;;;;5.90;1.60;;;11.60;99.90;;;;;;5021982;28;20032;-70
2022/06/14 00:28:22;;;;;;;7.63;1.30;;;11.60;99.90;;;;;;5034783;28;20030;-70
2022/06/14 00:30:50;;;;;;;6.82;1.48;;;11.60;99.90;;;;;;5022130;28;20082;-69
2022/06/14 00:33:16;;;;;;;6.00;1.25;;;11.60;99.90;;;;;;5018434;28;20043;-69
2022/06/14 00:35:43;;;;;;;6.68;2.13;;;11.50;99.90;;;;;;5040235;28;20476;-70
2022/06/14 00:38:10;;;;;;;3.55;1.13;;;11.50;99.90;;;;;;5018548;28;20041;-70
2022/06/14 00:40:37;;;;;;;4.38;1.17;;;11.50;99.90;;;;;;5039656;28;20047;-71
2022/06/14 00:43:11;;;;;;;8.43;1.25;;;11.50;99.90;;;;;;5021490;28;20132;-68
2022/06/14 00:45:37;;;;;;;10.52;1.67;;;11.50;99.90;;;;;;5043709;28;20065;-70
2022/06/14 00:48:12;;;;;;;9.88;1.17;;;11.50;99.90;;;;;;5038875;28;20060;-70
2022/06/14 00:51:03;;;;;;;6.22;1.67;;;11.40;99.90;;;;;;5036875;28;20037;-70
2022/06/14 00:53:53;;;;;;;5.72;1.10;;;11.40;99.90;;;;;;5018489;28;20040;-70
2022/06/14 00:56:22;;;;;;;7.72;2.45;;;11.40;99.90;;;;;;5033982;28;20046;-67
2022/06/14 00:59:09;;;;;;;13.32;2.75;;;11.40;99.90;;;;;;5039788;28;20041;-68
2022/06/14 01:01:36;;;;;;;5.32;1.13;;;11.40;99.90;;;;;;5039390;28;20032;-68
2022/06/14 01:04:11;;;;;;;7.35;1.73;;;11.30;99.90;;;;;;5036950;28;20029;-69
2022/06/14 01:06:43;;;;;;;3.70;1.08;;;11.30;99.90;;;;;;5022745;28;20481;-70
2022/06/14 01:09:25;;;;;;;10.52;2.20;;;11.30;99.90;;;;;;5032371;28;20108;-68
2022/06/14 01:11:58;;;;;;;6.85;1.42;;;11.30;99.90;;;;;;5032197;28;20137;-67
2022/06/14 01:14:40;;;;;;;6.03;1.50;;;11.30;99.90;;;;;;5020191;28;20029;-70
2022/06/14 01:17:08;;;;;;;7.00;1.50;;;11.20;99.90;;;;;;5039809;28;20037;-69
2022/06/14 01:19:34;;;;;;;7.47;1.50;;;11.20;99.90;;;;;;5019217;28;20033;-69
2022/06/14 01:22:02;;;;;;;4.72;1.30;;;11.20;99.90;;;;;;5019375;28;20133;-70
2022/06/14 01:24:28;;;;;;;3.60;1.23;;;11.10;99.90;;;;;;5020034;28;20038;-70
2022/06/14 01:26:54;;;;;;;4.70;1.48;;;11.10;99.90;;;;;;5039646;28;20026;-69
2022/06/14 01:29:23;;;;;;;7.38;1.33;;;11.10;99.90;;;;;;5038049;28;20064;-70
2022/06/14 01:31:51;;;;;;;5.78;1.50;;;11.10;99.90;;;;;;5037421;28;20038;-69
2022/06/14 01:34:18;;;;;;;6.65;1.50;;;11.00;99.90;;;;;;5020583;28;20576;-71
2022/06/14 01:36:44;;;;;;;7.47;1.95;;;11.00;99.90;;;;;;5019733;28;20039;-71
2022/06/14 01:39:14;;;;;;;6.63;1.05;;;11.00;99.90;;;;;;5039660;28;20025;-69
2022/06/14 01:42:03;;;;;;;3.75;1.20;;;11.00;99.90;;;;;;5018622;28;20029;-69
2022/06/14 01:44:40;;;;;;;5.50;1.92;;;10.90;99.90;;;;;;5021701;28;20049;-70
2022/06/14 01:47:38;;;;;;;4.88;1.33;;;10.90;99.90;;;;;;5036540;28;20441;-70
2022/06/14 01:53:17;;;;;;;6.28;1.40;;;10.90;99.90;;;;;;5036112;28;20079;-69
2022/06/14 01:56:11;;;;;;;5.72;1.60;;;10.90;99.90;;;;;;5040388;28;20041;-71
2022/06/14 01:58:51;;;;;;;4.63;1.27;;;10.80;99.90;;;;;;5042770;28;20048;-69
2022/06/14 02:01:20;;;;;;;4.78;1.25;;;10.80;99.90;;;;;;5020358;28;20040;-70
2022/06/14 02:04:56;;;;;;;10.32;2.20;;;10.80;99.90;;;;;;5043276;28;20108;-70
2022/06/14 02:07:04;;;;;;;5.53;1.63;;;10.80;99.90;;;;;;5020885;28;20876;-70
2022/06/14 02:09:56;;;;;;;5.13;1.45;;;10.80;99.90;;;;;;5025686;28;20028;-70
2022/06/14 02:12:52;;;;;;;3.92;1.27;;;10.70;99.90;;;;;;5032147;28;20029;-70
2022/06/14 02:15:36;;;;;;;4.10;1.00;;;10.70;99.90;;;;;;5021047;28;20045;-69
2022/06/14 02:18:30;;;;;;;6.05;1.25;;;10.70;99.90;;;;;;5043009;28;20037;-70
2022/06/14 02:21:11;;;;;;;10.07;1.90;;;10.70;99.90;;;;;;5048310;28;20061;-70
2022/06/14 02:23:54;;;;;;;6.70;1.77;;;10.70;99.90;;;;;;5024893;28;20037;-70
2022/06/14 02:27:11;;;;;;;6.25;1.58;;;10.70;99.90;;;;;;5045525;28;20043;-68
2022/06/14 02:30:04;;;;;;;7.75;1.13;;;10.60;99.90;;;;;;5035253;28;20051;-69
2022/06/14 02:32:51;;;;;;;18.63;2.10;;;10.60;99.90;;;;;;5042712;28;20036;-70
2022/06/14 02:35:32;;;;;;;6.07;1.77;;;10.60;99.90;;;;;;5040163;28;20041;-70
2022/06/14 02:38:09;;;;;;;5.70;2.00;;;10.60;99.90;;;;;;5023109;28;20084;-71
2022/06/14 02:40:45;;;;;;;5.15;1.30;;;10.60;99.90;;;;;;5039583;28;20038;-68
2022/06/14 02:43:32;;;;;;;5.63;1.83;;;10.50;99.90;;;;;;5020556;28;20490;-69
2022/06/14 02:46:13;;;;;;;8.57;1.70;;;10.50;99.90;;;;;;5044998;28;20100;-70
2022/06/14 02:49:04;;;;;;;7.07;1.55;;;10.50;99.90;;;;;;5039665;28;20172;-69
2022/06/14 02:51:37;;;;;;;5.55;1.55;;;10.50;99.90;;;;;;5041736;28;20042;-70
2022/06/14 02:54:22;;;;;;;6.30;2.35;;;10.50;99.90;;;;;;5037892;28;20075;-70
2022/06/14 02:57:19;;;;;;;11.25;2.13;;;10.50;99.90;;;;;;5023933;28;20305;-71
2022/06/14 02:59:55;;;;;;;6.20;1.70;;;10.50;99.90;;;;;;4997931;28;20120;-70
2022/06/14 03:02:28;;;;;;;8.63;2.03;;;10.40;99.90;;;;;;5043923;28;20029;-69
2022/06/14 03:05:08;;;;;;;8.18;1.38;;;10.50;99.90;;;;;;5028031;28;20033;-70
2022/06/14 03:07:41;;;;;;;4.93;1.55;;;10.40;99.90;;;;;;5039518;28;20029;-70
2022/06/14 03:10:07;;;;;;;6.60;1.83;;;10.40;99.90;;;;;;5039974;28;20029;-71
2022/06/14 03:12:44;;;;;;;5.82;2.08;;;10.40;99.90;;;;;;5025505;28;20112;-70
2022/06/14 03:15:39;;;;;;;4.82;1.38;;;10.40;99.90;;;;;;5040534;28;20042;-68
2022/06/14 03:18:27;;;;;;;4.78;1.60;;;10.30;99.90;;;;;;5040084;28;20041;-70
2022/06/14 03:21:00;;;;;;;9.00;2.60;;;10.30;99.90;;;;;;5043605;28;20025;-70
2022/06/14 03:23:55;;;;;;;4.78;1.63;;;10.30;99.90;;;;;;5047115;28;20090;-70
2022/06/14 03:26:49;;;;;;;8.48;2.00;;;10.30;99.90;;;;;;5023011;28;20041;-69
2022/06/14 03:29:18;;;;;;;10.82;2.45;;;10.30;99.90;;;;;;5042435;28;20109;-69
2022/06/14 03:31:49;;;;;;;7.32;1.88;;;10.30;99.90;;;;;;5054331;28;20029;-70
2022/06/14 03:34:24;;;;;;;8.13;1.77;;;10.30;99.90;;;;;;5045456;28;20037;-72
2022/06/14 03:36:52;;;;;;;5.32;1.73;;;10.30;99.90;;;;;;5063232;28;20073;-71
2022/06/14 03:39:30;;;;;;;4.60;2.28;;;10.20;99.90;;;;;;5062129;28;20059;-71
2022/06/14 03:41:58;;;;;;;4.53;1.75;;;10.20;99.90;;;;;;5064667;28;20029;-71
2022/06/14 03:44:27;;;;;;;14.43;2.55;;;10.20;99.90;;;;;;5059404;28;20116;-71
2022/06/14 03:47:17;;;;;;;7.22;2.35;;;10.20;99.90;;;;;;5060793;28;20035;-70
2022/06/14 03:50:06;;;;;;;4.38;1.63;;;10.20;99.90;;;;;;5042821;28;20017;-71
2022/06/14 03:52:54;;;;;;;10.88;2.00;;;10.20;99.90;;;;;;5038384;28;20045;-71
2022/06/14 03:55:47;;;;;;;6.72;2.25;;;10.20;99.90;;;;;;5059140;28;20060;-71
2022/06/14 03:58:18;;;;;;;11.23;2.10;;;10.20;99.90;;;;;;5059766;28;20041;-70
2022/06/14 04:00:52;;;;;;;4.55;1.67;;;10.20;99.90;;;;;;5062942;28;20089;-70
2022/06/14 04:03:42;;;;;;;4.45;1.83;;;10.20;99.90;;;;;;5062655;28;20038;-70
2022/06/14 04:06:11;;;;;;;6.18;1.95;;;10.20;99.90;;;;;;5057943;28;20061;-71
2022/06/14 04:08:51;;;;;;;10.48;2.13;;;10.20;99.90;;;;;;5062044;28;20067;-70
2022/06/14 04:11:48;;;;;;;7.30;2.10;;;10.20;99.90;;;;;;5069354;28;20048;-71
2022/06/14 04:14:28;;;;;;;3.30;1.65;;;10.20;99.90;;;;;;5060391;28;20042;-72
2022/06/14 04:17:02;;;;;;;7.43;2.75;;;10.20;99.90;;;;;;5043675;28;20048;-70
2022/06/14 04:19:47;;;;;;;13.48;2.40;;;10.20;99.90;;;;;;5057065;28;20037;-71
2022/06/14 04:22:20;;;;;;;7.32;2.20;;;10.30;99.90;;;;;;5054784;28;20111;-71
2022/06/14 04:25:16;;;;;;;6.75;2.20;;;10.30;99.90;;;;;;5038744;28;20033;-69
2022/06/14 04:28:01;;;;;;;7.68;2.40;;;10.30;99.90;;;;;;5018733;28;20037;-71
2022/06/14 04:30:36;;;;;;;11.85;2.13;;;10.40;99.90;;;;;;5021801;28;21436;-69
2022/06/14 04:33:34;;;;;;;9.70;2.78;;;10.40;99.90;;;;;;5018806;28;20045;-71
2022/06/14 04:36:11;;;;;;;11.20;2.22;;;10.50;99.90;;;;;;5030506;28;20161;-69
2022/06/14 04:38:44;;;;;;;8.65;3.03;;;10.50;99.90;;;;;;5037778;28;20401;-69
2022/06/14 04:41:22;;;;;;;7.15;2.00;;;10.60;99.90;;;;;;5033740;28;20037;-69
2022/06/14 04:43:58;;;;;;;6.13;2.50;;;10.60;99.90;;;;;;5018448;28;20136;-69
2022/06/14 04:46:46;;;;;;;8.43;2.65;;;10.60;99.90;;;;;;5038077;28;20586;-69
2022/06/14 04:49:24;;;;;;;6.38;2.30;;;10.70;99.90;;;;;;5039928;28;20033;-68
2022/06/14 04:52:15;;;;;;;7.43;1.95;;;10.70;99.90;;;;;;5031362;28;20044;-69
2022/06/14 04:54:50;;;;;;;5.10;2.15;;;10.70;99.90;;;;;;5020045;28;20037;-69
2022/06/14 04:57:43;;;;;;;7.43;2.85;;;10.70;99.90;;;;;;5038365;28;20651;-67
2022/06/14 05:00:27;;;;;;;4.35;1.98;;;10.80;99.90;;;;;;5019667;28;20063;-67
2022/06/14 05:03:16;;;;;;;6.80;1.92;;;10.80;99.90;;;;;;5014631;28;20034;-68
2022/06/14 05:05:52;;;;;;;4.32;2.25;;;10.90;99.90;;;;;;5026397;28;20038;-69
2022/06/14 05:08:27;;;;;;;5.80;2.35;;;10.90;99.90;;;;;;5012322;28;20037;-69
2022/06/14 05:11:33;;;;;;;7.60;2.22;;;10.90;99.90;;;;;;5010773;28;20858;-68
2022/06/14 05:14:16;;;;;;;7.65;1.88;;;11.00;99.90;;;;;;5003308;28;20033;-70
2022/06/14 05:17:05;;;;;;;10.80;2.78;;;11.00;99.90;;;;;;5014586;28;20764;-69
2022/06/14 05:19:45;;;;;;;6.57;1.65;;;11.10;99.90;;;;;;5030370;28;20030;-70
2022/06/14 05:22:18;;;;;;;8.98;2.33;;;11.20;99.90;;;;;;5014039;28;20087;-69
2022/06/14 05:24:43;;;;;;;6.68;2.13;;;11.20;99.90;;;;;;5034481;28;20112;-71
2022/06/14 05:27:43;;;;;;;6.03;1.67;;;11.30;99.90;;;;;;5033846;28;20128;-67
2022/06/14 05:30:12;;;;;;;5.85;2.00;;;11.40;99.90;;;;;;5030598;28;20041;-67
2022/06/14 05:32:58;;;;;;;6.05;1.63;;;11.50;99.90;;;;;;5014454;28;20593;-70
2022/06/14 05:36:12;;;;;;;9.07;1.42;;;11.60;99.90;;;;;;5030329;28;20468;-68
2022/06/14 05:39:00;;;;;;;4.05;1.08;;;11.80;99.90;;;;;;4988572;28;20485;-70
2022/06/14 05:41:41;;;;;;;8.75;1.92;;;12.10;99.90;;;;;;5027735;28;20037;-70
2022/06/14 05:44:13;;;;;;;8.40;1.67;;;12.40;99.90;;;;;;5017536;28;20095;-70
2022/06/14 05:46:48;;;;;;;2.83;1.13;;;12.80;99.90;;;;;;5032148;28;20034;-69
2022/06/14 05:49:21;;;;;;;6.85;1.23;;;13.40;99.90;;;;;;5012813;28;20044;-70
2022/06/14 05:51:55;;;;;;;6.30;1.17;;;13.90;99.90;;;;;;5033973;28;20127;-70
2022/06/14 05:54:27;;;;;;;4.80;1.10;;;14.50;99.90;;;;;;5033782;28;20032;-70
2022/06/14 05:57:09;;;;;;;5.75;0.85;;;15.10;99.90;;;;;;5034833;28;20025;-70
2022/06/14 05:59:48;;;;;;;5.47;0.73;;;15.60;99.90;;;;;;5012475;28;20033;-69
2022/06/14 06:02:29;;;;;;;3.22;0.75;;;16.10;99.90;;;;;;5032024;28;20112;-71
2022/06/14 06:05:05;;;;;;;2.78;0.60;;;16.60;99.90;;;;;;5031364;28;20037;-69
2022/06/14 06:07:40;;;;;;;4.00;0.73;;;16.90;99.90;;;;;;5025880;28;20034;-68
2022/06/14 06:10:16;;;;;;;5.45;0.70;;;17.00;99.90;;;;;;5030070;28;20037;-68
2022/06/14 06:12:50;;;;;;;3.42;0.98;;;17.10;99.90;;;;;;5031112;28;20021;-69
2022/06/14 06:15:25;;;;;;;4.22;0.95;;;17.20;99.90;;;;;;5031463;28;20124;-71
2022/06/14 06:17:56;;;;;;;3.05;1.08;;;17.20;99.90;;;;;;5028400;28;20103;-69
2022/06/14 06:20:25;;;;;;;2.47;0.82;;;17.30;99.90;;;;;;5029020;28;20091;-70
2022/06/14 06:23:16;;;;;;;2.60;0.45;;;17.40;99.90;;;;;;5026460;28;20039;-69
2022/06/14 06:25:49;;;;;;;2.47;0.50;;;17.50;99.90;;;;;;5032129;28;20383;-69
2022/06/14 06:28:30;;;;;;;1.60;0.43;;;17.60;99.90;;;;;;5011817;28;20060;-69
2022/06/14 06:31:01;;;;;;;5.68;1.27;;;17.70;99.90;;;;;;5027932;28;20038;-68
2022/06/14 06:33:31;;;;;;;2.70;0.68;;;17.80;99.90;;;;;;5028918;28;20044;-67
2022/06/14 06:36:10;;;;;;;5.45;1.27;;;18.10;99.90;;;;;;5014186;28;20405;-66
2022/06/14 06:39:05;;;;;;;3.63;0.85;;;18.40;99.90;;;;;;5012157;28;20037;-67
2022/06/14 06:41:50;;;;;;;3.65;0.70;;;18.80;99.90;;;;;;5028120;28;20103;-70
2022/06/14 06:44:37;;;;;;;3.97;0.52;;;19.20;99.90;;;;;;5028946;28;20037;-70
2022/06/14 06:47:08;;;;;;;2.65;0.73;;;19.60;99.90;;;;;;5027349;28;20794;-70
2022/06/14 06:49:58;;;;;;;3.38;0.52;;;20.20;99.90;;;;;;5029804;28;20026;-70
2022/06/14 06:52:50;;;;;;;3.90;0.80;;;20.50;99.90;;;;;;5029346;28;20067;-69
2022/06/14 06:55:40;;;;;;;2.40;0.73;;;20.40;99.90;;;;;;5021494;28;20040;-69
2022/06/14 06:58:25;;;;;;;4.38;0.85;;;20.50;99.50;;;;;;4989716;28;20060;-70
2022/06/14 07:00:55;;;;;;;3.00;0.47;;;20.80;99.90;;;;;;5008449;28;20041;-70
2022/06/14 07:03:42;;;;;;;4.78;1.02;;;21.40;99.70;;;;;;5029391;28;20048;-70
2022/06/14 07:06:41;;;;;;;2.28;0.63;;;22.10;97.90;;;;;;5028303;28;20072;-69
2022/06/14 07:09:19;;;;;;;3.53;0.88;;;23.10;96.40;;;;;;5016869;28;20038;-70
2022/06/14 07:11:55;;;;;;;4.20;1.05;;;23.90;92.90;;;;;;5030112;28;20107;-71
2022/06/14 07:14:39;;;;;;;3.55;0.90;;;24.90;91.90;;;;;;5007495;28;20037;-71
2022/06/14 07:17:15;;;;;;;3.75;1.02;;;26.20;90.20;;;;;;5028807;28;20091;-72
2022/06/14 07:19:58;;;;;;;2.45;0.75;;;27.10;88.60;;;;;;5030001;28;20029;-72
2022/06/14 07:22:37;;;;;;;8.50;1.67;;;28.00;84.60;;;;;;5024308;28;20045;-69
2022/06/14 07:25:14;;;;;;;2.08;0.70;;;28.50;78.50;;;;;;5011895;28;20391;-71
2022/06/14 07:27:46;;;;;;;5.13;0.93;;;28.80;76.90;;;;;;5026328;28;20030;-71
2022/06/14 07:30:18;;;;;;;4.03;0.65;;;28.80;70.90;;;;;;5031076;28;20567;-69
2022/06/14 07:32:49;;;;;;;1.35;0.43;;;29.50;71.60;;;;;;5030255;28;20044;-70
2022/06/14 07:35:20;;;;;;;2.03;0.75;;;29.50;69.70;;;;;;5028488;28;20029;-70
2022/06/14 07:37:57;;;;;;;1.50;0.70;;;30.00;70.60;;;;;;5026421;28;20045;-70
2022/06/14 07:40:34;;;;;;;3.50;0.90;;;30.50;66.60;;;;;;5024914;28;20087;-69
2022/06/14 07:43:06;;;;;;;1.80;0.90;;;30.90;63.40;;;;;;5028028;28;20049;-71
2022/06/14 07:45:38;;;;;;;4.47;0.98;;;30.50;65.90;;;;;;5028723;28;20405;-71
2022/06/14 07:48:04;;;;;;;3.70;1.20;;;30.70;66.70;;;;;;5029477;28;20370;-69
2022/06/14 07:50:38;;;;;;;3.67;1.10;;;31.00;64.00;;;;;;5008158;28;20041;-69
2022/06/14 07:53:25;;;;;;;2.78;1.00;;;31.40;61.10;;;;;;5027259;28;20037;-70
2022/06/14 07:55:55;;;;;;;2.63;0.93;;;31.60;60.20;;;;;;5028816;28;20115;-71
2022/06/14 07:58:32;;;;;;;3.85;0.70;;;31.30;58.70;;;;;;5011176;28;20052;-71
2022/06/14 08:01:09;;;;;;;5.13;1.02;;;31.10;58.70;;;;;;5009273;28;20068;-70
2022/06/14 08:04:13;;;;;;;5.95;1.45;;;31.40;58.10;;;;;;5026299;28;20022;-71
2022/06/14 08:06:42;;;;;;;3.08;1.23;;;30.90;55.80;;;;;;5009361;28;20068;-69
2022/06/14 08:09:42;;;;;;;2.20;0.97;;;29.90;58.70;;;;;;5010748;28;20037;-71
2022/06/14 08:12:20;;;;;;;0.90;0.57;;;29.80;58.40;;;;;;5028694;28;20029;-71
2022/06/14 08:14:52;;;;;;;4.63;0.90;;;29.30;59.80;;;;;;5026823;28;20041;-70
2022/06/14 08:17:35;;;;;;;3.05;0.45;;;29.20;58.90;;;;;;5024880;28;20568;-70
2022/06/14 08:20:19;;;;;;;1.08;0.35;;;28.60;56.80;;;;;;5006487;28;20041;-69
2022/06/14 08:22:49;;;;;;;4.72;0.90;;;28.00;58.60;;;;;;5023418;28;20030;-69
2022/06/14 08:25:23;;;;;;;1.30;0.50;;;27.30;59.20;;;;;;5026753;28;20507;-70
2022/06/14 08:27:57;;;;;;;1.65;0.40;;;26.20;60.80;;;;;;5025660;28;21024;-70
2022/06/14 08:30:38;;;;;;;1.83;0.65;;;25.20;61.90;;;;;;5005865;28;20506;-70
2022/06/14 08:33:14;;;;;;;2.65;0.60;;;24.80;62.40;;;;;;5026966;28;20045;-70
2022/06/14 08:35:56;;;;;;;2.13;0.43;;;24.50;65.20;;;;;;5013261;28;20033;-70
2022/06/14 08:38:30;;;;;;;2.53;0.47;;;24.20;65.50;;;;;;5023991;28;20449;-71
2022/06/14 08:41:08;;;;;;;1.58;0.30;;;24.00;67.50;;;;;;5032425;28;20083;-71
2022/06/14 08:43:49;;;;;;;2.53;0.70;;;23.90;66.70;;;;;;5026560;28;20099;-69
2022/06/14 08:46:26;;;;;;;0.98;0.30;;;23.70;67.20;;;;;;5025541;28;20509;-69
2022/06/14 08:49:08;;;;;;;2.75;0.60;;;23.50;67.50;;;;;;5026505;28;20481;-70
2022/06/14 08:51:49;;;;;;;1.02;0.30;;;23.10;67.60;;;;;;5016628;28;20037;-69
2022/06/14 08:54:39;;;;;;;1.50;0.20;;;22.70;69.00;;;;;;5008216;28;20778;-69
2022/06/14 08:57:20;;;;;;;4.18;0.50;;;22.50;68.70;;;;;;5009064;28;20515;-70
2022/06/14 08:59:55;;;;;;;2.58;0.38;;;22.60;70.00;;;;;;5009218;28;20037;-69
2022/06/14 09:02:30;;;;;;;0.68;0.30;;;22.70;70.10;;;;;;5010001;28;20467;-70
2022/06/14 09:05:52;;;;;;;5.32;0.90;;;22.40;70.30;;;;;;5027896;28;20052;-66
2022/06/14 09:08:52;;;;;;;2.85;0.40;;;22.50;70.90;;;;;;4954932;28;20047;-70
2022/06/14 09:11:18;;;;;;;0.73;0.40;;;22.70;70.30;;;;;;4961901;28;20407;-70
2022/06/14 09:13:49;;;;;;;3.25;1.00;;;22.80;69.70;;;;;;5011859;28;20049;-69
2022/06/14 09:16:42;;;;;;;3.88;0.80;;;22.90;69.00;;;;;;5026386;28;20063;-68
2022/06/14 09:19:25;;;;;;;1.55;0.50;;;23.10;70.00;;;;;;5032354;28;20045;-70
2022/06/14 09:22:06;;;;;;;3.05;0.43;;;23.20;68.80;;;;;;5025715;28;20398;-70
2022/06/14 09:24:54;;;;;;;5.90;0.73;;;22.80;67.60;;;;;;5027393;28;20065;-69
2022/06/14 09:27:46;;;;;;;3.28;0.70;;;22.80;70.50;;;;;;5026017;28;20037;-70
2022/06/14 09:30:45;;;;;;;1.38;0.50;;;22.80;71.60;;;;;;5025753;28;20037;-70
2022/06/14 09:33:35;;;;;;;3.27;0.60;;;22.90;70.60;;;;;;5011097;28;20551;-70
2022/06/14 09:36:04;;;;;;;2.53;0.82;;;22.90;68.10;;;;;;5009589;28;20147;-68
2022/06/14 09:39:05;;;;;;;2.65;0.57;;;22.90;69.40;;;;;;5026261;28;20053;-68
2022/06/14 09:41:50;;;;;;;3.10;0.38;;;22.60;70.50;;;;;;5010026;28;20121;-69
2022/06/14 09:44:21;;;;;;;4.53;0.63;;;22.40;72.60;;;;;;5022787;28;20072;-70
2022/06/14 09:46:56;;;;;;;4.22;0.63;;;22.40;71.80;;;;;;5029518;28;20028;-69
2022/06/14 09:49:35;;;;;;;0.93;0.35;;;22.20;72.40;;;;;;5024157;28;20561;-71
2022/06/14 09:52:33;;;;;;;3.40;0.25;;;22.10;72.90;;;;;;5028298;28;20053;-68
2022/06/14 09:55:32;;;;;;;1.05;0.20;;;22.40;72.60;;;;;;5025665;28;20049;-69
2022/06/14 09:58:13;;;;;;;2.10;0.40;;;22.30;71.60;;;;;;5029510;28;20060;-70
2022/06/14 10:00:59;;;;;;;2.72;0.57;;;22.00;72.00;;;;;;5028436;28;20496;-67
2022/06/14 10:03:56;;;;;;;1.40;0.45;;;21.70;73.00;;;;;;5025305;28;20574;-70
2022/06/14 10:06:48;;;;;;;2.95;0.68;;;21.60;74.70;;;;;;5026650;28;20045;-70
2022/06/14 10:09:25;;;;;;;1.15;0.30;;;21.30;75.20;;;;;;5015333;28;20041;-70
2022/06/14 10:12:26;;;;;;;1.58;0.85;;;21.10;75.10;;;;;;5025002;28;20037;-69
2022/06/14 10:15:18;;;;;;;2.55;0.60;;;21.10;76.70;;;;;;5030355;28;20083;-70
2022/06/14 10:18:03;;;;;;;1.55;0.40;;;21.00;76.10;;;;;;5026112;28;20033;-70
2022/06/14 10:20:51;;;;;;;1.38;0.25;;;20.90;75.90;;;;;;5009253;28;20541;-70
2022/06/14 10:23:17;;;;;;;1.45;0.40;;;20.90;75.90;;;;;;5005318;28;20444;-70
2022/06/14 10:28:37;;;;;;;2.35;0.57;;;21.10;77.10;;;;;;5029855;28;20187;-70
2022/06/14 10:31:41;;;;;;;1.42;0.45;;;21.20;76.40;;;;;;5015402;28;20530;-68
2022/06/14 10:34:18;;;;;;;3.95;0.63;;;21.20;78.00;;;;;;5019805;28;20094;-70
2022/06/14 10:36:52;;;;;;;5.10;0.85;;;21.30;77.10;;;;;;5019299;28;20025;-71
2022/06/14 10:39:55;;;;;;;2.72;0.50;;;21.20;77.80;;;;;;5030591;28;20192;-69
2022/06/14 10:42:32;;;;;;;2.53;0.55;;;21.30;76.50;;;;;;5030955;28;20096;-71
2022/06/14 10:45:16;;;;;;;1.30;0.40;;;21.30;75.10;;;;;;5008891;28;20026;-70
2022/06/14 10:48:14;;;;;;;0.98;0.28;;;21.70;76.10;;;;;;5011822;28;20033;-70
2022/06/14 10:51:08;;;;;;;1.77;0.25;;;22.30;76.10;;;;;;5009367;28;20033;-71
2022/06/14 10:54:03;;;;;;;2.58;0.50;;;22.70;73.70;;;;;;5029669;28;20037;-69
2022/06/14 10:56:54;;;;;;;1.85;0.40;;;22.70;72.50;;;;;;5032481;28;20051;-68
2022/06/14 10:59:38;;;;;;;1.83;0.30;;;22.50;72.30;;;;;;5006666;28;20486;-70
2022/06/14 11:02:35;;;;;;;0.73;0.20;;;22.10;71.50;;;;;;5018103;28;20117;-67
2022/06/14 11:05:21;;;;;;;1.05;0.40;;;21.90;71.30;;;;;;5011062;28;20029;-68
2022/06/14 11:07:46;;;;;;;2.83;0.28;;;21.60;73.50;;;;;;5030648;28;20148;-69
2022/06/14 11:10:37;;;;;;;1.90;0.40;;;21.50;72.50;;;;;;5014061;28;20044;-68
2022/06/14 11:13:31;;;;;;;1.98;0.77;;;21.40;74.00;;;;;;5029474;28;20034;-68
2022/06/14 11:16:26;;;;;;;1.10;0.32;;;21.70;74.10;;;;;;5011889;28;20077;-69
2022/06/14 11:19:06;;;;;;;2.17;0.68;;;22.10;73.50;;;;;;5009049;28;20449;-70
2022/06/14 11:21:59;;;;;;;2.22;0.38;;;22.20;72.80;;;;;;5008766;28;20048;-73
2022/06/14 11:24:35;;;;;;;1.83;0.55;;;22.40;73.70;;;;;;5029554;28;20048;-70
2022/06/14 11:27:29;;;;;;;0.88;0.65;;;22.40;74.70;;;;;;5009368;28;20041;-70
2022/06/14 11:30:06;;;;;;;3.60;0.45;;;22.60;71.10;;;;;;5012320;28;20241;-70
2022/06/14 11:32:48;;;;;;;1.35;0.75;;;22.50;71.40;;;;;;5032448;28;20501;-71
2022/06/14 11:35:46;;;;;;;9.63;0.77;;;22.40;71.30;;;;;;5029752;28;20485;-70
2022/06/14 11:38:48;;;;;;;2.95;0.30;;;22.20;70.00;;;;;;5028997;28;20067;-70
2022/06/14 11:41:18;;;;;;;4.80;0.60;;;22.10;70.00;;;;;;5026631;28;20120;-71
2022/06/14 11:44:27;;;;;;;2.70;0.50;;;22.10;68.60;;;;;;5025078;28;20046;-70
2022/06/14 11:47:15;;;;;;;0.88;0.32;;;21.90;70.20;;;;;;4979378;28;20056;-69
2022/06/14 11:50:02;;;;;;;1.83;0.45;;;21.80;73.80;;;;;;5028571;28;20144;-70
2022/06/14 11:52:45;;;;;;;2.50;0.25;;;21.80;71.20;;;;;;5012323;28;20040;-71
2022/06/14 11:55:53;;;;;;;1.27;0.55;;;21.90;72.50;;;;;;5010059;28;20061;-70
2022/06/14 11:58:26;;;;;;;0.80;0.40;;;22.00;71.50;;;;;;5009375;28;20045;-73
2022/06/14 12:00:57;;;;;;;1.77;0.50;;;22.10;69.40;;;;;;5027979;28;20037;-70
2022/06/14 12:03:35;;;;;;;1.05;0.30;;;22.10;70.30;;;;;;5030269;28;20115;-68
2022/06/14 12:06:28;;;;;;;1.73;0.50;;;22.30;70.30;;;;;;5011155;28;20048;-70
2022/06/14 12:09:06;;;;;;;0.80;0.25;;;22.40;72.30;;;;;;5011801;28;20033;-69
2022/06/14 12:11:47;;;;;;;1.17;0.40;;;22.70;70.00;;;;;;5012231;28;20037;-69
2022/06/14 12:14:24;;;;;;;3.28;0.60;;;22.90;70.00;;;;;;5014103;28;20060;-70
2022/06/14 12:17:41;;;;;;;1.25;0.52;;;23.10;74.00;;;;;;5011306;28;20143;-69
2022/06/14 12:20:19;;;;;;;1.48;0.30;;;23.00;69.40;;;;;;5006369;28;20737;-66
2022/06/14 12:23:10;;;;;;;2.05;0.40;;;23.00;68.50;;;;;;5010363;28;20037;-71
2022/06/14 12:28:51;;;;;;;5.35;0.40;;;22.90;69.20;;;;;;5023714;28;20426;-67
2022/06/14 12:31:20;;;;;;;0.60;0.40;;;22.80;69.10;;;;;;5029115;28;20486;-69
2022/06/14 12:33:51;;;;;;;0.88;0.40;;;22.70;67.30;;;;;;5023885;28;20033;-69
2022/06/14 12:36:49;;;;;;;1.90;0.47;;;22.50;67.40;;;;;;5025430;28;20078;-70
2022/06/14 12:39:29;;;;;;;8.00;0.50;;;22.30;71.50;;;;;;5027106;28;20053;-70
2022/06/14 12:42:13;;;;;;;;;;;22.10;73.50;;;;;;5029802;28;20121;-68
2022/06/14 12:44:53;;;;;;;1.98;0.65;;;22.00;74.20;;;;;;5028302;28;19921;-69
2022/06/14 12:47:50;;;;;;;2.93;0.63;;;22.10;72.70;;;;;;5028412;28;20037;-71
2022/06/14 12:50:21;;;;;;;9.35;1.15;;;22.10;71.10;;;;;;4990106;28;20102;-70
2022/06/14 12:52:52;;;;;;;1.52;0.68;;;22.00;72.00;;;;;;5009752;28;20406;-69
2022/06/14 12:55:22;;;;;;;2.45;0.55;;;21.90;73.00;;;;;;5027109;28;20037;-70
2022/06/14 12:58:02;;;;;;;0.83;0.40;;;22.00;74.20;;;;;;5026985;28;20045;-70
2022/06/14 13:00:48;;;;;;;2.55;0.28;;;21.90;72.60;;;;;;5026036;28;20512;-70
2022/06/14 13:03:13;;;;;;;2.45;0.65;;;22.00;72.80;;;;;;5025642;28;20506;-70
2022/06/14 13:05:45;;;;;;;1.00;0.40;;;21.90;72.20;;;;;;5026846;28;20143;-70
2022/06/14 13:08:30;;;;;;;4.55;0.60;;;21.90;72.80;;;;;;5029552;28;20036;-68
2022/06/14 13:11:14;;;;;;;1.77;0.50;;;22.00;71.70;;;;;;5034854;28;20083;-67
2022/06/14 13:14:06;;;;;;;1.55;0.40;;;22.00;72.40;;;;;;5034112;28;20516;-72
2022/06/14 13:16:32;;;;;;;1.58;0.40;;;22.00;72.60;;;;;;5037362;28;20037;-70
2022/06/14 13:19:31;;;;;;;2.63;0.60;;;22.00;74.00;;;;;;5035410;28;20696;-70
2022/06/14 13:22:05;;;;;;;2.67;0.65;;;22.00;72.70;;;;;;5017741;28;20040;-69
2022/06/14 13:24:50;;;;;;;3.67;0.47;;;22.00;73.20;;;;;;5032085;28;20118;-70
2022/06/14 13:27:53;;;;;;;2.80;0.25;;;22.00;73.70;;;;;;5018592;28;20091;-71
2022/06/14 13:30:40;;;;;;;2.45;0.47;;;21.90;74.10;;;;;;5018741;28;20157;-68
2022/06/14 13:33:28;;;;;;;2.53;0.32;;;21.90;74.90;;;;;;5036132;28;20065;-70
2022/06/14 13:36:18;;;;;;;0.95;0.35;;;22.00;73.30;;;;;;5037427;28;20164;-70
2022/06/14 13:38:46;;;;;;;;;;;22.30;74.20;;;;;;5018596;28;20131;-70
2022/06/14 13:41:14;;;;;;;1.92;0.60;;;22.60;72.40;;;;;;5039938;28;19923;-68
2022/06/14 13:44:16;;;;;;;4.35;0.50;;;22.70;69.20;;;;;;5041774;28;20081;-71
2022/06/14 13:46:50;;;;;;;2.00;0.47;;;22.70;70.50;;;;;;4981619;28;20141;-68
2022/06/14 13:49:46;;;;;;;1.75;0.40;;;22.70;71.00;;;;;;5021524;28;20037;-70
2022/06/14 13:52:47;;;;;;;1.77;0.50;;;22.80;70.20;;;;;;5039061;28;20041;-69
2022/06/14 13:55:13;;;;;;;4.65;0.60;;;22.60;71.10;;;;;;5010815;28;20042;-66
2022/06/14 13:57:47;;;;;;;4.65;0.52;;;22.30;72.90;;;;;;5022718;28;20400;-68
2022/06/14 14:00:25;;;;;;;3.33;0.75;;;22.10;74.00;;;;;;5020796;28;20044;-70
2022/06/14 14:03:13;;;;;;;3.80;0.70;;;21.90;74.10;;;;;;5041866;28;20033;-68
2022/06/14 14:06:21;;;;;;;1.92;0.45;;;21.80;73.20;;;;;;5038280;28;20035;-68
2022/06/14 14:09:01;;;;;;;1.80;0.50;;;21.90;72.10;;;;;;5039856;28;20037;-71